KMCN

Middle Georgia Regional Airport

Macon, Georgia, USA
METAR KMCN 181453Z 02007KT 10SM CLR M03/M12 A3046 RMK AO2 SLP317 T10281122 53006
Observed Flight Rules
Jan-18 @ 14:53 UTC (33 minutes ago) Visual Flight Rules
Wind Visibility Clouds
20° at 7 knots 10 miles
  • Clear skies
Temperatures Readings
Current -3°C / 27°F
Dewpoint -12°C / 10°F
Humidity 50%
Altimeter 30.46" Hg
Pressure 1031.7 hPa
Elevation 109
METAR KMCN 181453Z 02007KT 10SM CLR M03/M12 A3046 RMK AO2 SLP317 T10281122 53006
Observed Flight Rules
Jan-18 @ 14:53 UTC
(33 minutes ago)
VFR
Wind Visibility
20° at 7 knots 10 miles
Clouds
  • Clear skies
Temperature Dewpoint
-3°C / 27°F -12°C / 10°F
Humidity Altimeter Pressure
50% 30.46" Hg 1031.7 hPa